Terminal Aerodrome Forecast
Issued by NWS Sterling, VA

Home | Current Version | Previous Version | Text Only | Print | Product List | Glossary On
Versions: 1 2 3 4 5 6 7 8 9 10 11 12 13 14 15
000
FTUS41 KLWX 280800 AAB
TAFMRB
TAF AMD
KMRB 280811Z 2808/2906 24005KT P6SM SKC
     FM281000 26010KT P6SM SCT050 BKN130
     FM281500 30012G24KT P6SM SCT025 BKN090
     FM290100 30008KT P6SM BKN250=

USA.gov is the U.S. government's official web portal to all federal, state and local government web resources and services.